Time;durP1;ratioP1;P1;durP2;ratioP2;P2;SDS_P1;SDS_P2;PMS_P1;PMS_P2;Temp;Humidity;BMP_temperature;BMP_pressure;BME280_temperature;BME280_humidity;BME280_pressure;Samples;Min_cycle;Max_cycle;Signal;HPM_P1;HPM_P2
2022/07/12 00:02:16;;;;;;;16.90;9.68;;;;;;;;;;3368267;42;20566;-58
2022/07/12 00:04:42;;;;;;;15.65;9.82;;;;;;;;;;3368483;42;20098;-60
2022/07/12 00:07:08;;;;;;;16.75;9.27;;;;;;;;;;3367816;42;20102;-59
2022/07/12 00:09:34;;;;;;;15.60;9.57;;;;;;;;;;3368223;42;20100;-59
2022/07/12 00:11:59;;;;;;;17.38;10.02;;;;;;;;;;3368445;42;20114;-59
2022/07/12 00:14:25;;;;;;;15.07;9.60;;;;;;;;;;3368970;42;20084;-59
2022/07/12 00:16:51;;;;;;;15.00;9.13;;;;;;;;;;3368774;42;20088;-61
2022/07/12 00:19:18;;;;;;;14.38;9.10;;;;;;;;;;3355760;42;20105;-59
2022/07/12 00:21:44;;;;;;;17.42;8.98;;;;;;;;;;3369240;42;20103;-60
2022/07/12 00:24:10;;;;;;;15.13;9.10;;;;;;;;;;3368056;42;20613;-61
2022/07/12 00:26:36;;;;;;;16.50;9.43;;;;;;;;;;3357559;42;20094;-59
2022/07/12 00:29:02;;;;;;;15.10;9.27;;;;;;;;;;3362419;42;20099;-59
2022/07/12 00:31:28;;;;;;;13.93;8.57;;;;;;;;;;3369733;42;20510;-57
2022/07/12 00:33:54;;;;;;;15.45;8.88;;;;;;;;;;3368184;42;20090;-59
2022/07/12 00:36:20;;;;;;;14.63;9.25;;;;;;;;;;3369624;42;20076;-57
2022/07/12 00:38:46;;;;;;;12.87;8.73;;;;;;;;;;3369156;42;20162;-58
2022/07/12 00:41:12;;;;;;;13.50;8.90;;;;;;;;;;3354297;42;20152;-57
2022/07/12 00:43:38;;;;;;;15.15;9.00;;;;;;;;;;3363496;42;20321;-58
2022/07/12 00:46:04;;;;;;;13.35;8.63;;;;;;;;;;3368552;42;20222;-55
2022/07/12 00:48:32;;;;;;;15.18;9.40;;;;;;;;;;3369818;42;20555;-59
2022/07/12 00:50:58;;;;;;;13.63;8.77;;;;;;;;;;3355046;42;20084;-58
2022/07/12 00:53:24;;;;;;;14.60;9.15;;;;;;;;;;3368616;42;20088;-58
2022/07/12 00:55:56;;;;;;;14.90;9.20;;;;;;;;;;3353242;42;20542;-58
2022/07/12 00:58:25;;;;;;;15.82;8.98;;;;;;;;;;3369096;42;20084;-58
2022/07/12 01:00:51;;;;;;;13.85;8.70;;;;;;;;;;3369223;42;20881;-60
2022/07/12 01:03:18;;;;;;;12.70;8.40;;;;;;;;;;3369648;42;20084;-59
2022/07/12 01:05:44;;;;;;;11.77;8.10;;;;;;;;;;3369662;42;20646;-57
2022/07/12 01:08:11;;;;;;;13.88;8.60;;;;;;;;;;3370054;42;20107;-57
2022/07/12 01:10:37;;;;;;;14.13;8.43;;;;;;;;;;3360786;42;20115;-58
2022/07/12 01:13:03;;;;;;;12.50;7.40;;;;;;;;;;3361176;42;20095;-58
2022/07/12 01:15:29;;;;;;;13.88;7.95;;;;;;;;;;3353452;42;20610;-57
2022/07/12 01:17:56;;;;;;;13.27;7.95;;;;;;;;;;3357690;42;20155;-58
2022/07/12 01:20:22;;;;;;;14.02;8.80;;;;;;;;;;3358267;42;20167;-59
2022/07/12 01:22:57;;;;;;;13.65;7.88;;;;;;;;;;3369404;42;20095;-59
2022/07/12 01:25:23;;;;;;;13.80;7.83;;;;;;;;;;3368831;42;20155;-59
2022/07/12 01:27:49;;;;;;;12.63;7.78;;;;;;;;;;3369081;42;20095;-57
2022/07/12 01:30:15;;;;;;;11.57;8.02;;;;;;;;;;3368733;42;20088;-58
2022/07/12 01:32:41;;;;;;;13.30;8.00;;;;;;;;;;3368827;42;20088;-59
2022/07/12 01:35:07;;;;;;;10.77;7.37;;;;;;;;;;3356662;42;20119;-58
2022/07/12 01:37:38;;;;;;;11.90;7.43;;;;;;;;;;3369165;42;20104;-58
2022/07/12 01:40:05;;;;;;;11.38;7.80;;;;;;;;;;3359944;42;20092;-58
2022/07/12 01:42:31;;;;;;;11.88;7.78;;;;;;;;;;3360047;42;20165;-59
2022/07/12 01:44:57;;;;;;;13.25;7.97;;;;;;;;;;3368733;42;20092;-61
2022/07/12 01:47:28;;;;;;;11.60;7.50;;;;;;;;;;3369276;42;20110;-58
2022/07/12 01:49:54;;;;;;;12.93;7.47;;;;;;;;;;3360908;42;20648;-59
2022/07/12 01:52:20;;;;;;;12.38;8.05;;;;;;;;;;3368739;42;20091;-60
2022/07/12 01:54:46;;;;;;;13.73;8.38;;;;;;;;;;3359824;42;20114;-58
2022/07/12 01:57:12;;;;;;;11.07;8.15;;;;;;;;;;3360330;42;20133;-58
2022/07/12 01:59:39;;;;;;;12.23;7.93;;;;;;;;;;3368402;42;20096;-59
2022/07/12 02:02:05;;;;;;;13.02;7.90;;;;;;;;;;3359758;42;20140;-59
2022/07/12 02:04:31;;;;;;;15.75;8.43;;;;;;;;;;3368579;42;20087;-57
2022/07/12 02:06:57;;;;;;;11.93;7.70;;;;;;;;;;3369539;42;20565;-59
2022/07/12 02:09:23;;;;;;;12.93;7.83;;;;;;;;;;3367036;42;20158;-60
2022/07/12 02:11:49;;;;;;;12.05;7.68;;;;;;;;;;3367967;42;20571;-59
2022/07/12 02:14:16;;;;;;;11.30;7.57;;;;;;;;;;3366967;42;20103;-60
2022/07/12 02:16:42;;;;;;;12.75;7.95;;;;;;;;;;3366777;42;20198;-58
2022/07/12 02:19:08;;;;;;;11.02;7.50;;;;;;;;;;3367370;42;20533;-59
2022/07/12 02:21:34;;;;;;;11.00;7.43;;;;;;;;;;3358760;42;20091;-58
2022/07/12 02:24:00;;;;;;;13.02;7.53;;;;;;;;;;3364697;42;20173;-59
2022/07/12 02:26:27;;;;;;;11.77;7.95;;;;;;;;;;3358887;42;20147;-59
2022/07/12 02:28:52;;;;;;;12.48;8.25;;;;;;;;;;3367137;42;20559;-59
2022/07/12 02:31:18;;;;;;;13.07;7.33;;;;;;;;;;3366470;42;20546;-58
2022/07/12 02:33:44;;;;;;;13.48;7.70;;;;;;;;;;3367498;42;20099;-57
2022/07/12 02:36:10;;;;;;;10.70;7.55;;;;;;;;;;3367151;42;20087;-57
2022/07/12 02:38:36;;;;;;;12.23;7.63;;;;;;;;;;3367152;42;20147;-59
2022/07/12 02:41:02;;;;;;;11.80;7.50;;;;;;;;;;3367455;42;20095;-58
2022/07/12 02:43:31;;;;;;;13.55;7.80;;;;;;;;;;3366880;42;20080;-58
2022/07/12 02:46:07;;;;;;;13.50;7.70;;;;;;;;;;3358480;42;20168;-59
2022/07/12 02:48:33;;;;;;;11.53;7.77;;;;;;;;;;3366702;42;20091;-59
2022/07/12 02:51:00;;;;;;;11.18;7.30;;;;;;;;;;3367186;42;20088;-60
2022/07/12 02:53:26;;;;;;;11.60;7.75;;;;;;;;;;3358178;42;20103;-60
2022/07/12 02:55:52;;;;;;;11.40;7.60;;;;;;;;;;3367077;42;20083;-59
2022/07/12 02:58:18;;;;;;;10.45;7.45;;;;;;;;;;3345919;42;20100;-59
2022/07/12 03:00:47;;;;;;;12.37;8.10;;;;;;;;;;3364977;42;20162;-58
2022/07/12 03:03:13;;;;;;;11.27;7.50;;;;;;;;;;3353480;42;20096;-58
2022/07/12 03:05:39;;;;;;;12.32;7.32;;;;;;;;;;3367089;42;20091;-59
2022/07/12 03:08:06;;;;;;;11.05;7.72;;;;;;;;;;3366917;42;20107;-59
2022/07/12 03:10:32;;;;;;;12.10;7.70;;;;;;;;;;3368829;42;20088;-59
2022/07/12 03:12:59;;;;;;;10.40;6.83;;;;;;;;;;3354218;42;20092;-59
2022/07/12 03:15:25;;;;;;;10.25;7.05;;;;;;;;;;3369103;42;20162;-58
2022/07/12 03:17:51;;;;;;;11.68;6.80;;;;;;;;;;3369397;42;20099;-60
2022/07/12 03:20:17;;;;;;;10.02;7.15;;;;;;;;;;3369749;42;20095;-58
2022/07/12 03:22:48;;;;;;;10.85;7.43;;;;;;;;;;3368485;42;20107;-59
2022/07/12 03:25:14;;;;;;;12.27;7.03;;;;;;;;;;3355861;42;20083;-60
2022/07/12 03:27:41;;;;;;;11.00;6.97;;;;;;;;;;3370153;42;20092;-63
2022/07/12 03:30:08;;;;;;;10.45;6.80;;;;;;;;;;3355254;42;20092;-59
2022/07/12 03:32:34;;;;;;;10.98;6.82;;;;;;;;;;3368420;42;20505;-59
2022/07/12 03:35:00;;;;;;;11.35;6.90;;;;;;;;;;3368459;42;20087;-59
2022/07/12 03:37:27;;;;;;;13.50;7.10;;;;;;;;;;3368539;42;20084;-59
2022/07/12 03:39:54;;;;;;;11.80;6.95;;;;;;;;;;3368513;42;20487;-59
2022/07/12 03:42:20;;;;;;;9.70;6.18;;;;;;;;;;3368600;42;20166;-59
2022/07/12 03:44:46;;;;;;;9.70;6.60;;;;;;;;;;3356479;42;20447;-59
2022/07/12 03:47:12;;;;;;;11.90;6.70;;;;;;;;;;3366181;42;20091;-60
2022/07/12 03:49:39;;;;;;;11.00;6.70;;;;;;;;;;3368386;42;20088;-59
2022/07/12 03:52:05;;;;;;;11.70;6.60;;;;;;;;;;3368714;42;20505;-60
2022/07/12 03:54:31;;;;;;;11.57;6.43;;;;;;;;;;3368626;42;20606;-58
2022/07/12 03:57:15;;;;;;;11.80;6.82;;;;;;;;;;3363231;42;20505;-59
2022/07/12 03:59:42;;;;;;;11.02;6.53;;;;;;;;;;3363705;42;20130;-59
2022/07/12 04:02:09;;;;;;;11.50;6.70;;;;;;;;;;3367874;42;20132;-57
2022/07/12 04:04:35;;;;;;;9.65;6.55;;;;;;;;;;3367866;42;20079;-57
2022/07/12 04:07:01;;;;;;;13.38;6.78;;;;;;;;;;3367848;42;20234;-57
2022/07/12 04:09:27;;;;;;;9.13;6.55;;;;;;;;;;3368204;42;20158;-57
2022/07/12 04:11:52;;;;;;;9.87;6.30;;;;;;;;;;3359233;42;20566;-58
2022/07/12 04:14:18;;;;;;;11.43;6.97;;;;;;;;;;3367594;42;20088;-58
2022/07/12 04:16:44;;;;;;;12.68;7.28;;;;;;;;;;3368173;42;20102;-59
2022/07/12 04:19:10;;;;;;;10.40;6.70;;;;;;;;;;3368133;42;20087;-59
2022/07/12 04:21:37;;;;;;;9.13;6.30;;;;;;;;;;3367576;42;20606;-58
2022/07/12 04:24:03;;;;;;;8.93;6.22;;;;;;;;;;3362292;42;20143;-57
2022/07/12 04:26:30;;;;;;;10.15;6.18;;;;;;;;;;3368818;42;20134;-58
2022/07/12 04:28:55;;;;;;;9.15;6.32;;;;;;;;;;3370215;42;20087;-58
2022/07/12 04:31:21;;;;;;;10.20;6.43;;;;;;;;;;3371004;42;20552;-59
2022/07/12 04:33:47;;;;;;;9.32;5.88;;;;;;;;;;3372312;42;20541;-57
2022/07/12 04:36:13;;;;;;;9.10;6.45;;;;;;;;;;3373819;42;20092;-61
2022/07/12 04:38:39;;;;;;;11.37;6.37;;;;;;;;;;3364217;42;20142;-58
2022/07/12 04:41:05;;;;;;;10.43;6.68;;;;;;;;;;3374105;42;20137;-59
2022/07/12 04:43:31;;;;;;;10.13;6.20;;;;;;;;;;3374988;42;20626;-59
2022/07/12 04:46:06;;;;;;;9.57;5.88;;;;;;;;;;3370002;42;20080;-60
2022/07/12 04:48:32;;;;;;;11.83;6.33;;;;;;;;;;3372119;42;20138;-54
2022/07/12 04:50:58;;;;;;;10.10;6.28;;;;;;;;;;3369482;42;20111;-54
2022/07/12 04:53:24;;;;;;;16.45;6.40;;;;;;;;;;3369047;42;20114;-51
2022/07/12 04:55:50;;;;;;;12.45;6.25;;;;;;;;;;3369271;42;20094;-53
2022/07/12 04:58:15;;;;;;;12.68;5.88;;;;;;;;;;3368964;42;20586;-59
2022/07/12 05:00:41;;;;;;;9.90;5.72;;;;;;;;;;3366990;42;20566;-57
2022/07/12 05:03:07;;;;;;;8.55;5.88;;;;;;;;;;3369734;42;20155;-54
2022/07/12 05:05:33;;;;;;;10.40;5.50;;;;;;;;;;3368898;42;20108;-54
2022/07/12 05:07:59;;;;;;;9.30;5.53;;;;;;;;;;3368752;42;20151;-55
2022/07/12 05:10:25;;;;;;;9.02;6.00;;;;;;;;;;3368917;42;20135;-54
2022/07/12 05:12:51;;;;;;;8.80;5.53;;;;;;;;;;3368859;42;20096;-55
2022/07/12 05:15:18;;;;;;;10.15;5.68;;;;;;;;;;3368572;42;20774;-54
2022/07/12 05:17:44;;;;;;;12.75;5.80;;;;;;;;;;3370350;42;20635;-54
2022/07/12 05:20:10;;;;;;;10.57;5.88;;;;;;;;;;3369055;42;20088;-54
2022/07/12 05:22:36;;;;;;;9.52;5.65;;;;;;;;;;3368578;42;20104;-53
2022/07/12 05:25:04;;;;;;;11.50;5.60;;;;;;;;;;3358634;42;20127;-58
2022/07/12 05:27:30;;;;;;;10.05;5.97;;;;;;;;;;3358208;42;20092;-50
2022/07/12 05:29:56;;;;;;;8.43;5.45;;;;;;;;;;3358870;42;20338;-53
2022/07/12 05:32:23;;;;;;;9.02;5.70;;;;;;;;;;3367353;42;20091;-53
2022/07/12 05:34:49;;;;;;;8.68;5.57;;;;;;;;;;3368006;42;20127;-55
2022/07/12 05:37:15;;;;;;;8.63;5.43;;;;;;;;;;3370359;42;21178;-55
2022/07/12 05:39:42;;;;;;;9.93;5.72;;;;;;;;;;3360833;42;20553;-55
2022/07/12 05:42:09;;;;;;;8.05;5.47;;;;;;;;;;3368472;42;20084;-55
2022/07/12 05:44:35;;;;;;;10.77;5.55;;;;;;;;;;3367635;42;20096;-54
2022/07/12 05:47:01;;;;;;;7.90;5.60;;;;;;;;;;3367728;42;20625;-52
2022/07/12 05:49:27;;;;;;;8.65;4.80;;;;;;;;;;3367899;42;20092;-56
2022/07/12 05:54:37;;;;;;;9.45;5.40;;;;;;;;;;3368110;42;20114;-55
2022/07/12 05:57:03;;;;;;;8.97;4.90;;;;;;;;;;3368003;42;20084;-58
2022/07/12 05:59:30;;;;;;;8.75;5.25;;;;;;;;;;3367534;42;20326;-55
2022/07/12 06:01:57;;;;;;;8.35;5.10;;;;;;;;;;3358712;42;20148;-55
2022/07/12 06:04:23;;;;;;;11.30;5.07;;;;;;;;;;3367353;42;20483;-54
2022/07/12 06:06:49;;;;;;;9.50;5.45;;;;;;;;;;3367652;42;20609;-54
2022/07/12 06:09:14;;;;;;;10.27;5.40;;;;;;;;;;3367658;42;20192;-56
2022/07/12 06:11:40;;;;;;;10.13;5.05;;;;;;;;;;3367472;42;20088;-51
2022/07/12 06:14:06;;;;;;;10.38;5.35;;;;;;;;;;3367358;42;20559;-56
2022/07/12 06:16:32;;;;;;;11.03;5.50;;;;;;;;;;3367906;42;20102;-55
2022/07/12 06:18:58;;;;;;;10.07;5.65;;;;;;;;;;3368770;42;20297;-56
2022/07/12 06:21:24;;;;;;;9.30;5.05;;;;;;;;;;3367421;42;20088;-56
2022/07/12 06:23:50;;;;;;;10.52;5.30;;;;;;;;;;3367019;42;20087;-54
2022/07/12 06:26:16;;;;;;;9.32;5.05;;;;;;;;;;3367543;42;20096;-55
2022/07/12 06:28:42;;;;;;;8.52;4.93;;;;;;;;;;3367153;42;20463;-54
2022/07/12 06:31:08;;;;;;;9.27;5.22;;;;;;;;;;3366859;42;20092;-53
2022/07/12 06:33:34;;;;;;;9.60;5.28;;;;;;;;;;3367284;42;20584;-58
2022/07/12 06:36:00;;;;;;;10.07;5.43;;;;;;;;;;3367581;42;20534;-56
2022/07/12 06:38:26;;;;;;;9.00;4.85;;;;;;;;;;3363010;42;20543;-53
2022/07/12 06:40:52;;;;;;;8.43;4.80;;;;;;;;;;3367456;42;20130;-57
2022/07/12 06:43:18;;;;;;;10.00;5.33;;;;;;;;;;3367867;42;20091;-57
2022/07/12 06:45:44;;;;;;;9.75;5.43;;;;;;;;;;3368795;42;20084;-56
2022/07/12 06:48:10;;;;;;;13.00;4.90;;;;;;;;;;3368024;42;20558;-52
2022/07/12 06:50:36;;;;;;;7.65;4.90;;;;;;;;;;3366282;42;20605;-56
2022/07/12 06:53:03;;;;;;;9.37;4.83;;;;;;;;;;3369085;42;20099;-56
2022/07/12 06:55:30;;;;;;;10.00;5.30;;;;;;;;;;3369340;42;20103;-56
2022/07/12 06:57:56;;;;;;;10.80;5.38;;;;;;;;;;3367712;42;20165;-56
2022/07/12 07:00:22;;;;;;;7.75;5.22;;;;;;;;;;3358981;42;20095;-57
2022/07/12 07:02:47;;;;;;;10.40;5.20;;;;;;;;;;3367694;42;20513;-57
2022/07/12 07:05:15;;;;;;;11.38;5.72;;;;;;;;;;3367212;42;20298;-57
2022/07/12 07:07:41;;;;;;;9.35;5.22;;;;;;;;;;3367200;42;20167;-54
2022/07/12 07:10:07;;;;;;;10.95;5.50;;;;;;;;;;3367031;42;20142;-55
2022/07/12 07:12:33;;;;;;;9.18;5.43;;;;;;;;;;3367296;42;20151;-53
2022/07/12 07:14:59;;;;;;;11.83;5.00;;;;;;;;;;3367235;42;20118;-56
2022/07/12 07:17:26;;;;;;;13.30;5.30;;;;;;;;;;3367038;42;20162;-56
2022/07/12 07:19:52;;;;;;;10.15;5.20;;;;;;;;;;3367162;42;20143;-55
2022/07/12 07:22:19;;;;;;;13.35;5.70;;;;;;;;;;3366808;42;20241;-57
2022/07/12 07:24:46;;;;;;;8.60;4.90;;;;;;;;;;3367291;42;20095;-55
2022/07/12 07:27:12;;;;;;;7.70;4.93;;;;;;;;;;3367238;42;20080;-57
2022/07/12 07:32:22;;;;;;;11.75;5.00;;;;;;;;;;3367105;42;20110;-57
2022/07/12 07:34:48;;;;;;;9.10;5.05;;;;;;;;;;3367070;42;20593;-54
2022/07/12 07:37:14;;;;;;;9.25;5.40;;;;;;;;;;3366958;42;20099;-57
2022/07/12 07:39:40;;;;;;;8.43;5.10;;;;;;;;;;3366670;42;20103;-56
2022/07/12 07:42:06;;;;;;;9.43;5.15;;;;;;;;;;3367588;42;20079;-56
2022/07/12 07:44:32;;;;;;;8.83;4.57;;;;;;;;;;3368363;42;20098;-56
2022/07/12 07:46:58;;;;;;;7.78;4.85;;;;;;;;;;3366826;42;20096;-57
2022/07/12 07:49:24;;;;;;;8.85;4.90;;;;;;;;;;3367014;42;20080;-58
2022/07/12 07:51:50;;;;;;;9.50;5.07;;;;;;;;;;3367740;42;20570;-55
2022/07/12 07:54:16;;;;;;;8.68;5.00;;;;;;;;;;3366936;42;20291;-57
2022/07/12 07:56:42;;;;;;;10.20;4.90;;;;;;;;;;3366446;42;20479;-58
2022/07/12 07:59:08;;;;;;;9.23;4.70;;;;;;;;;;3366409;42;20087;-56
2022/07/12 08:01:45;;;;;;;11.23;4.80;;;;;;;;;;3366088;42;20599;-55
2022/07/12 08:04:11;;;;;;;9.18;4.88;;;;;;;;;;3366350;42;20859;-53
2022/07/12 08:06:38;;;;;;;9.13;4.90;;;;;;;;;;3366138;42;20107;-54
2022/07/12 08:09:04;;;;;;;9.57;5.00;;;;;;;;;;3366904;42;20087;-57
2022/07/12 08:11:30;;;;;;;10.95;4.80;;;;;;;;;;3359276;42;20100;-55
2022/07/12 08:13:56;;;;;;;9.20;5.10;;;;;;;;;;3367925;42;20143;-56
2022/07/12 08:16:22;;;;;;;9.13;4.50;;;;;;;;;;3368200;42;20289;-57
2022/07/12 08:18:48;;;;;;;7.78;4.70;;;;;;;;;;3367961;42;20079;-56
2022/07/12 08:21:14;;;;;;;9.52;4.60;;;;;;;;;;3368353;42;20138;-56
2022/07/12 08:23:40;;;;;;;8.60;4.73;;;;;;;;;;3368152;42;20080;-57
2022/07/12 08:26:06;;;;;;;12.55;4.95;;;;;;;;;;3367947;42;20127;-58
2022/07/12 08:28:32;;;;;;;9.30;5.03;;;;;;;;;;3367778;42;20131;-56
2022/07/12 08:30:58;;;;;;;8.37;4.80;;;;;;;;;;3368319;42;20169;-59
2022/07/12 08:33:24;;;;;;;10.38;4.65;;;;;;;;;;3366709;42;20135;-57
2022/07/12 08:35:49;;;;;;;8.68;4.80;;;;;;;;;;3366762;42;20527;-56
2022/07/12 08:38:15;;;;;;;9.93;5.40;;;;;;;;;;3358402;42;20621;-56
2022/07/12 08:40:42;;;;;;;8.20;4.90;;;;;;;;;;3367403;42;20291;-53
2022/07/12 08:43:08;;;;;;;11.30;5.78;;;;;;;;;;3367539;42;20115;-56
2022/07/12 08:45:34;;;;;;;10.55;5.60;;;;;;;;;;3367930;42;20075;-57
2022/07/12 08:48:00;;;;;;;8.30;4.93;;;;;;;;;;3367680;42;20083;-58
2022/07/12 08:50:29;;;;;;;8.57;4.80;;;;;;;;;;3367815;42;20505;-56
2022/07/12 08:52:55;;;;;;;10.82;5.28;;;;;;;;;;3367681;42;20589;-55
2022/07/12 08:55:25;;;;;;;11.05;5.25;;;;;;;;;;3352966;42;20153;-57
2022/07/12 08:57:53;;;;;;;24.23;5.95;;;;;;;;;;3365470;42;20103;-54
2022/07/12 09:00:19;;;;;;;12.52;5.22;;;;;;;;;;3367226;42;20095;-56
2022/07/12 09:03:14;;;;;;;10.70;5.10;;;;;;;;;;3367675;42;20096;-57
2022/07/12 09:05:53;;;;;;;11.88;5.05;;;;;;;;;;3367031;42;20091;-54
2022/07/12 09:08:27;;;;;;;9.13;4.95;;;;;;;;;;3355738;42;20096;-59
2022/07/12 09:10:54;;;;;;;9.95;5.13;;;;;;;;;;3355219;42;20167;-56
2022/07/12 09:13:20;;;;;;;8.90;5.30;;;;;;;;;;3368862;42;20116;-58
2022/07/12 09:15:47;;;;;;;8.93;5.50;;;;;;;;;;3367750;42;20187;-59
2022/07/12 09:18:14;;;;;;;10.13;5.13;;;;;;;;;;3367734;42;20123;-56
2022/07/12 09:20:42;;;;;;;8.68;5.20;;;;;;;;;;3367240;42;20099;-54
2022/07/12 09:23:09;;;;;;;9.73;5.35;;;;;;;;;;3367469;42;20088;-55
2022/07/12 09:25:35;;;;;;;10.57;5.30;;;;;;;;;;3366966;42;20075;-52
2022/07/12 09:28:08;;;;;;;10.00;5.70;;;;;;;;;;3367627;42;20088;-57
2022/07/12 09:30:36;;;;;;;9.27;4.82;;;;;;;;;;3367079;42;20112;-54
2022/07/12 09:36:06;;;;;;;12.10;5.65;;;;;;;;;;3367120;42;20475;-56
2022/07/12 09:39:01;;;;;;;11.57;5.25;;;;;;;;;;3367919;42;20091;-56
2022/07/12 09:41:27;;;;;;;9.37;5.03;;;;;;;;;;3357991;42;20098;-54
2022/07/12 09:43:53;;;;;;;8.88;4.72;;;;;;;;;;3367312;42;20139;-56
2022/07/12 09:46:19;;;;;;;9.65;4.80;;;;;;;;;;3367432;42;20135;-56
2022/07/12 09:48:45;;;;;;;8.48;4.82;;;;;;;;;;3367126;42;20589;-55
2022/07/12 09:51:16;;;;;;;10.83;5.50;;;;;;;;;;3367316;42;20080;-57
2022/07/12 09:53:46;;;;;;;8.65;4.85;;;;;;;;;;3366903;42;20140;-55
2022/07/12 09:56:14;;;;;;;8.85;5.00;;;;;;;;;;3367268;42;20107;-51
2022/07/12 09:58:47;;;;;;;11.60;4.60;;;;;;;;;;3366984;42;20239;-57
2022/07/12 10:01:13;;;;;;;9.52;4.95;;;;;;;;;;3358360;42;20092;-57
2022/07/12 10:03:40;;;;;;;12.30;5.00;;;;;;;;;;3353880;42;20087;-55
2022/07/12 10:06:06;;;;;;;11.00;5.05;;;;;;;;;;3352900;42;20104;-54
2022/07/12 10:08:32;;;;;;;9.70;5.22;;;;;;;;;;3366048;42;20596;-54
2022/07/12 10:10:57;;;;;;;13.27;5.03;;;;;;;;;;3366990;42;20169;-55
2022/07/12 10:13:23;;;;;;;8.33;4.90;;;;;;;;;;3366302;42;20104;-54
2022/07/12 10:15:50;;;;;;;8.20;5.00;;;;;;;;;;3366437;42;20091;-55
2022/07/12 10:18:20;;;;;;;8.95;4.78;;;;;;;;;;3357403;42;20095;-58
2022/07/12 10:20:47;;;;;;;8.23;4.73;;;;;;;;;;3365335;42;20131;-55
2022/07/12 10:23:34;;;;;;;7.95;4.80;;;;;;;;;;3357092;42;20162;-56
2022/07/12 10:26:24;;;;;;;10.40;5.07;;;;;;;;;;3362348;42;20088;-57
2022/07/12 10:29:00;;;;;;;9.15;4.40;;;;;;;;;;3360327;42;20096;-55
2022/07/12 10:31:34;;;;;;;8.82;4.40;;;;;;;;;;3361730;42;20092;-56
2022/07/12 10:34:22;;;;;;;7.97;3.90;;;;;;;;;;3367222;42;20136;-55
2022/07/12 10:36:54;;;;;;;8.18;4.10;;;;;;;;;;3367056;42;20585;-56
2022/07/12 10:39:21;;;;;;;7.60;3.80;;;;;;;;;;3367462;42;20139;-58
2022/07/12 10:42:13;;;;;;;8.43;3.80;;;;;;;;;;3367774;42;20096;-57
2022/07/12 10:44:47;;;;;;;7.93;3.80;;;;;;;;;;3346748;42;20139;-58
2022/07/12 10:47:15;;;;;;;7.63;3.60;;;;;;;;;;3368770;42;20106;-57
2022/07/12 10:49:48;;;;;;;7.63;3.70;;;;;;;;;;3356807;42;20593;-55
2022/07/12 10:52:16;;;;;;;8.45;3.90;;;;;;;;;;3363357;42;20155;-56
2022/07/12 10:54:50;;;;;;;7.55;3.85;;;;;;;;;;3366828;42;20100;-54
2022/07/12 10:57:39;;;;;;;9.27;4.15;;;;;;;;;;3351585;42;20163;-57
2022/07/12 11:00:06;;;;;;;7.53;3.80;;;;;;;;;;3367227;42;20095;-57
2022/07/12 11:02:32;;;;;;;7.95;3.92;;;;;;;;;;3367274;42;20087;-53
2022/07/12 11:04:58;;;;;;;7.20;3.78;;;;;;;;;;3357539;42;20088;-57
2022/07/12 11:07:24;;;;;;;9.32;4.45;;;;;;;;;;3366765;42;20256;-58
2022/07/12 11:09:53;;;;;;;9.73;4.20;;;;;;;;;;3353465;42;20143;-55
2022/07/12 11:12:19;;;;;;;9.15;3.70;;;;;;;;;;3366901;42;20210;-57
2022/07/12 11:14:45;;;;;;;7.97;4.15;;;;;;;;;;3366778;42;20095;-53
2022/07/12 11:17:11;;;;;;;7.43;4.00;;;;;;;;;;3366936;42;20095;-54
2022/07/12 11:19:37;;;;;;;8.48;3.80;;;;;;;;;;3366850;42;20114;-55
2022/07/12 11:22:04;;;;;;;8.20;4.20;;;;;;;;;;3365989;42;20330;-57
2022/07/12 11:24:31;;;;;;;8.25;4.00;;;;;;;;;;3366385;42;20084;-57
2022/07/12 11:26:59;;;;;;;8.65;4.05;;;;;;;;;;3365546;42;20166;-54
2022/07/12 11:29:25;;;;;;;13.23;4.60;;;;;;;;;;3368133;42;20218;-57
2022/07/12 11:32:04;;;;;;;8.63;4.27;;;;;;;;;;3366191;42;20096;-56
2022/07/12 11:34:30;;;;;;;9.45;4.60;;;;;;;;;;3361917;42;20171;-53
2022/07/12 11:36:57;;;;;;;10.82;4.57;;;;;;;;;;3366417;42;20558;-53
2022/07/12 11:39:40;;;;;;;8.90;4.63;;;;;;;;;;3366685;42;20377;-56
2022/07/12 11:42:06;;;;;;;7.75;4.20;;;;;;;;;;3354635;42;20104;-55
2022/07/12 11:44:45;;;;;;;16.97;3.23;;;;;;;;;;3366246;42;20088;-54
2022/07/12 11:47:11;;;;;;;9.60;3.10;;;;;;;;;;3351178;42;20188;-55
2022/07/12 11:49:44;;;;;;;16.30;3.10;;;;;;;;;;3365964;42;20126;-54
2022/07/12 11:52:18;;;;;;;16.10;2.95;;;;;;;;;;3351507;42;20102;-52
2022/07/12 11:54:45;;;;;;;17.00;2.90;;;;;;;;;;3366167;42;20103;-56
2022/07/12 11:57:11;;;;;;;25.20;3.77;;;;;;;;;;3365530;42;20096;-56
2022/07/12 11:59:37;;;;;;;19.58;3.28;;;;;;;;;;3365679;42;20145;-54
2022/07/12 12:02:07;;;;;;;23.75;4.53;;;;;;;;;;3354976;42;20092;-58
2022/07/12 12:04:53;;;;;;;16.77;2.78;;;;;;;;;;3367135;42;20492;-55
2022/07/12 12:07:22;;;;;;;10.20;2.77;;;;;;;;;;3356771;42;20088;-55
2022/07/12 12:10:17;;;;;;;11.32;2.60;;;;;;;;;;3359424;42;20123;-54
2022/07/12 12:12:55;;;;;;;9.98;2.80;;;;;;;;;;3360301;42;20593;-54
2022/07/12 12:15:31;;;;;;;5.82;2.45;;;;;;;;;;3372917;42;20138;-51
2022/07/12 12:17:59;;;;;;;11.50;2.70;;;;;;;;;;3361237;42;20514;-56
2022/07/12 12:20:26;;;;;;;6.40;2.17;;;;;;;;;;3366181;42;20096;-51
2022/07/12 12:22:54;;;;;;;7.05;2.20;;;;;;;;;;3366549;42;20163;-56
2022/07/12 12:25:20;;;;;;;7.28;2.20;;;;;;;;;;3366374;42;20107;-54
2022/07/12 12:27:47;;;;;;;6.25;2.05;;;;;;;;;;3371122;42;20202;-56
2022/07/12 12:30:13;;;;;;;5.53;2.00;;;;;;;;;;3365936;42;20104;-52
2022/07/12 12:32:44;;;;;;;6.00;2.43;;;;;;;;;;3364964;42;20090;-53
2022/07/12 12:35:10;;;;;;;5.30;2.03;;;;;;;;;;3365903;42;20092;-54
2022/07/12 12:37:36;;;;;;;6.18;2.33;;;;;;;;;;3365709;42;20354;-57
2022/07/12 12:40:04;;;;;;;7.22;2.30;;;;;;;;;;3364906;42;20362;-55
2022/07/12 12:42:30;;;;;;;8.10;2.20;;;;;;;;;;3365664;42;20088;-58
2022/07/12 12:44:56;;;;;;;6.97;2.43;;;;;;;;;;3365273;42;20095;-56
2022/07/12 12:47:31;;;;;;;7.95;2.72;;;;;;;;;;3366151;42;20547;-55
2022/07/12 12:50:00;;;;;;;6.68;2.90;;;;;;;;;;3365751;42;20563;-57
2022/07/12 12:52:27;;;;;;;8.90;3.42;;;;;;;;;;3366022;42;20084;-58
2022/07/12 12:54:53;;;;;;;6.33;3.10;;;;;;;;;;3356799;42;20147;-55
2022/07/12 12:57:19;;;;;;;7.55;3.20;;;;;;;;;;3367777;42;20135;-57
2022/07/12 12:59:45;;;;;;;7.68;3.65;;;;;;;;;;3366790;42;20127;-57
2022/07/12 13:02:11;;;;;;;8.15;3.35;;;;;;;;;;3367210;42;20179;-58
2022/07/12 13:04:37;;;;;;;6.97;3.10;;;;;;;;;;3366864;42;20092;-57
2022/07/12 13:07:05;;;;;;;7.03;3.30;;;;;;;;;;3358337;42;20107;-57
2022/07/12 13:09:32;;;;;;;8.05;3.30;;;;;;;;;;3358545;42;20087;-56
2022/07/12 13:11:58;;;;;;;8.27;3.13;;;;;;;;;;3367135;42;20163;-58
2022/07/12 13:14:24;;;;;;;6.65;3.22;;;;;;;;;;3358148;42;20148;-59
2022/07/12 13:16:50;;;;;;;8.30;3.47;;;;;;;;;;3367772;42;20136;-57
2022/07/12 13:19:16;;;;;;;7.22;3.30;;;;;;;;;;3355925;42;20124;-57
2022/07/12 13:21:42;;;;;;;7.22;3.20;;;;;;;;;;3366439;42;20103;-59
2022/07/12 13:24:08;;;;;;;6.82;3.10;;;;;;;;;;3367185;42;20092;-55
2022/07/12 13:26:34;;;;;;;8.30;3.20;;;;;;;;;;3367225;42;20361;-53
2022/07/12 13:29:00;;;;;;;6.60;3.22;;;;;;;;;;3358112;42;20146;-56
2022/07/12 13:31:26;;;;;;;9.48;3.95;;;;;;;;;;3358616;42;20158;-59
2022/07/12 13:33:53;;;;;;;6.05;2.95;;;;;;;;;;3366959;42;20178;-56
2022/07/12 13:36:21;;;;;;;6.70;3.00;;;;;;;;;;3367069;42;20083;-54
2022/07/12 13:38:47;;;;;;;8.43;3.05;;;;;;;;;;3367138;42;20139;-55
2022/07/12 13:41:13;;;;;;;7.00;3.45;;;;;;;;;;3366890;42;20500;-54
2022/07/12 13:43:39;;;;;;;9.38;3.33;;;;;;;;;;3366792;42;20577;-52
2022/07/12 13:46:05;;;;;;;7.73;3.30;;;;;;;;;;3366994;42;20088;-53
2022/07/12 13:48:31;;;;;;;7.38;3.05;;;;;;;;;;3351569;42;20143;-58
2022/07/12 13:50:57;;;;;;;9.05;3.20;;;;;;;;;;3358084;42;20101;-56
2022/07/12 13:53:23;;;;;;;6.80;3.40;;;;;;;;;;3366830;42;20111;-52
2022/07/12 13:55:49;;;;;;;8.02;3.05;;;;;;;;;;3366529;42;20095;-55
2022/07/12 13:58:15;;;;;;;7.07;2.80;;;;;;;;;;3351975;42;20107;-59
2022/07/12 14:00:41;;;;;;;8.52;3.33;;;;;;;;;;3362448;42;20521;-54
2022/07/12 14:03:08;;;;;;;9.82;3.60;;;;;;;;;;3351946;42;20498;-58
2022/07/12 14:05:34;;;;;;;8.27;3.53;;;;;;;;;;3355426;42;20102;-56
2022/07/12 14:08:09;;;;;;;7.83;3.27;;;;;;;;;;3366670;42;20612;-54
2022/07/12 14:18:56;;;;;;;8.63;3.55;;;;;;;;;;3342997;42;20106;-56
2022/07/12 14:46:00;;;;;;;6.90;3.57;;;;;;;;;;3354602;42;20136;-54
2022/07/12 14:49:10;;;;;;;8.00;3.42;;;;;;;;;;3360691;42;20166;-54
2022/07/12 14:52:22;;;;;;;7.43;3.50;;;;;;;;;;3357808;42;20087;-55
2022/07/12 14:55:21;;;;;;;8.18;3.50;;;;;;;;;;3341046;42;20194;-53
2022/07/12 14:57:47;;;;;;;6.82;3.50;;;;;;;;;;3357638;42;20574;-55
2022/07/12 15:00:13;;;;;;;7.17;3.40;;;;;;;;;;3358274;42;20641;-58
2022/07/12 15:02:39;;;;;;;8.73;3.20;;;;;;;;;;3357810;42;20141;-53
2022/07/12 15:05:07;;;;;;;7.10;3.55;;;;;;;;;;3357644;42;20128;-56
2022/07/12 15:07:33;;;;;;;7.97;3.15;;;;;;;;;;3359426;42;20076;-55
2022/07/12 15:09:59;;;;;;;6.50;3.40;;;;;;;;;;3349498;42;20111;-54
2022/07/12 15:12:25;;;;;;;9.02;3.20;;;;;;;;;;3359506;42;20228;-57
2022/07/12 15:14:51;;;;;;;6.75;3.35;;;;;;;;;;3349794;42;20171;-56
2022/07/12 15:17:18;;;;;;;9.10;3.47;;;;;;;;;;3357119;42;20084;-54
2022/07/12 15:19:45;;;;;;;6.53;3.80;;;;;;;;;;3359810;42;20102;-55
2022/07/12 15:22:14;;;;;;;8.25;3.50;;;;;;;;;;3357298;42;20174;-54